sensor_id;sensor_type;location;lat;lon;timestamp;P1;durP1;ratioP1;P2;durP2;ratioP2
74259;SDS011;62630;55.874;37.516;2022-09-09T00:00:40;5.05;;;1.98;;
74259;SDS011;62630;55.874;37.516;2022-09-09T00:03:14;2.85;;;1.50;;
74259;SDS011;62630;55.874;37.516;2022-09-09T00:09:40;2.20;;;1.40;;
74259;SDS011;62630;55.874;37.516;2022-09-09T00:12:18;3.35;;;1.90;;
74259;SDS011;62630;55.874;37.516;2022-09-09T00:15:07;1.98;;;1.38;;
74259;SDS011;62630;55.874;37.516;2022-09-09T00:22:47;3.00;;;2.05;;
74259;SDS011;62630;55.874;37.516;2022-09-09T00:25:28;4.10;;;1.60;;
74259;SDS011;62630;55.874;37.516;2022-09-09T00:27:59;8.00;;;2.25;;
74259;SDS011;62630;55.874;37.516;2022-09-09T00:30:31;3.80;;;1.67;;
74259;SDS011;62630;55.874;37.516;2022-09-09T00:33:00;7.20;;;1.85;;
74259;SDS011;62630;55.874;37.516;2022-09-09T00:35:40;7.78;;;1.70;;
74259;SDS011;62630;55.874;37.516;2022-09-09T00:38:14;4.47;;;1.77;;
74259;SDS011;62630;55.874;37.516;2022-09-09T00:41:24;2.78;;;1.85;;
74259;SDS011;62630;55.874;37.516;2022-09-09T00:44:00;5.82;;;1.60;;
74259;SDS011;62630;55.874;37.516;2022-09-09T00:49:23;1.42;;;1.10;;
74259;SDS011;62630;55.874;37.516;2022-09-09T00:57:32;2.00;;;1.60;;
74259;SDS011;62630;55.874;37.516;2022-09-09T01:08:00;3.13;;;1.35;;
74259;SDS011;62630;55.874;37.516;2022-09-09T01:10:40;2.78;;;1.33;;
74259;SDS011;62630;55.874;37.516;2022-09-09T01:13:16;3.20;;;1.20;;
74259;SDS011;62630;55.874;37.516;2022-09-09T01:15:50;3.30;;;1.55;;
74259;SDS011;62630;55.874;37.516;2022-09-09T01:18:19;4.38;;;1.33;;
74259;SDS011;62630;55.874;37.516;2022-09-09T01:26:43;2.33;;;1.40;;
74259;SDS011;62630;55.874;37.516;2022-09-09T01:29:17;2.50;;;1.27;;
74259;SDS011;62630;55.874;37.516;2022-09-09T01:34:27;2.72;;;1.80;;
74259;SDS011;62630;55.874;37.516;2022-09-09T01:39:33;2.20;;;1.30;;
74259;SDS011;62630;55.874;37.516;2022-09-09T01:41:59;2.42;;;1.08;;
74259;SDS011;62630;55.874;37.516;2022-09-09T01:44:26;3.15;;;1.45;;
74259;SDS011;62630;55.874;37.516;2022-09-09T01:46:53;2.28;;;1.35;;
74259;SDS011;62630;55.874;37.516;2022-09-09T01:49:19;2.15;;;1.20;;
74259;SDS011;62630;55.874;37.516;2022-09-09T01:51:45;1.73;;;1.23;;
74259;SDS011;62630;55.874;37.516;2022-09-09T01:54:13;3.55;;;1.40;;
74259;SDS011;62630;55.874;37.516;2022-09-09T02:09:44;2.08;;;1.40;;
74259;SDS011;62630;55.874;37.516;2022-09-09T02:12:16;2.03;;;1.40;;
74259;SDS011;62630;55.874;37.516;2022-09-09T02:14:50;1.42;;;1.33;;
74259;SDS011;62630;55.874;37.516;2022-09-09T02:17:24;3.15;;;1.10;;
74259;SDS011;62630;55.874;37.516;2022-09-09T02:19:59;3.97;;;1.20;;
74259;SDS011;62630;55.874;37.516;2022-09-09T02:22:30;1.88;;;1.20;;
74259;SDS011;62630;55.874;37.516;2022-09-09T02:24:59;2.58;;;1.70;;
74259;SDS011;62630;55.874;37.516;2022-09-09T02:27:25;3.80;;;1.27;;
74259;SDS011;62630;55.874;37.516;2022-09-09T02:29:51;1.88;;;1.25;;
74259;SDS011;62630;55.874;37.516;2022-09-09T02:32:23;6.28;;;1.52;;
74259;SDS011;62630;55.874;37.516;2022-09-09T02:34:51;3.72;;;1.42;;
74259;SDS011;62630;55.874;37.516;2022-09-09T02:37:22;3.85;;;1.60;;
74259;SDS011;62630;55.874;37.516;2022-09-09T02:39:53;2.38;;;1.40;;
74259;SDS011;62630;55.874;37.516;2022-09-09T02:42:19;5.30;;;1.38;;
74259;SDS011;62630;55.874;37.516;2022-09-09T02:44:45;2.42;;;1.58;;
74259;SDS011;62630;55.874;37.516;2022-09-09T02:52:36;8.27;;;1.52;;
74259;SDS011;62630;55.874;37.516;2022-09-09T02:55:13;2.17;;;1.50;;
74259;SDS011;62630;55.874;37.516;2022-09-09T02:57:46;6.20;;;2.03;;
74259;SDS011;62630;55.874;37.516;2022-09-09T03:00:13;2.45;;;1.52;;
74259;SDS011;62630;55.874;37.516;2022-09-09T03:02:39;2.72;;;1.38;;
74259;SDS011;62630;55.874;37.516;2022-09-09T03:05:07;4.07;;;1.75;;
74259;SDS011;62630;55.874;37.516;2022-09-09T03:07:32;2.50;;;1.40;;
74259;SDS011;62630;55.874;37.516;2022-09-09T03:09:58;4.63;;;1.40;;
74259;SDS011;62630;55.874;37.516;2022-09-09T03:12:25;2.10;;;1.40;;
74259;SDS011;62630;55.874;37.516;2022-09-09T03:14:50;3.08;;;1.55;;
74259;SDS011;62630;55.874;37.516;2022-09-09T03:17:16;3.88;;;1.58;;
74259;SDS011;62630;55.874;37.516;2022-09-09T03:19:41;4.40;;;1.70;;
74259;SDS011;62630;55.874;37.516;2022-09-09T03:22:09;4.28;;;1.80;;
74259;SDS011;62630;55.874;37.516;2022-09-09T03:24:35;3.35;;;1.73;;
74259;SDS011;62630;55.874;37.516;2022-09-09T03:27:00;7.75;;;1.60;;
74259;SDS011;62630;55.874;37.516;2022-09-09T03:29:29;5.57;;;1.98;;
74259;SDS011;62630;55.874;37.516;2022-09-09T03:31:54;4.25;;;1.77;;
74259;SDS011;62630;55.874;37.516;2022-09-09T03:34:20;7.47;;;1.70;;
74259;SDS011;62630;55.874;37.516;2022-09-09T03:36:46;3.33;;;1.40;;
74259;SDS011;62630;55.874;37.516;2022-09-09T03:44:04;3.42;;;1.17;;
74259;SDS011;62630;55.874;37.516;2022-09-09T03:46:30;1.58;;;1.23;;
74259;SDS011;62630;55.874;37.516;2022-09-09T03:48:56;5.65;;;2.13;;
74259;SDS011;62630;55.874;37.516;2022-09-09T03:51:22;3.50;;;1.63;;
74259;SDS011;62630;55.874;37.516;2022-09-09T03:53:47;5.88;;;1.50;;
74259;SDS011;62630;55.874;37.516;2022-09-09T03:56:13;3.78;;;1.58;;
74259;SDS011;62630;55.874;37.516;2022-09-09T03:58:39;2.75;;;1.48;;
74259;SDS011;62630;55.874;37.516;2022-09-09T04:01:06;7.90;;;2.60;;
74259;SDS011;62630;55.874;37.516;2022-09-09T04:03:34;3.63;;;1.67;;
74259;SDS011;62630;55.874;37.516;2022-09-09T04:06:03;3.15;;;1.58;;
74259;SDS011;62630;55.874;37.516;2022-09-09T04:08:29;6.13;;;1.90;;
74259;SDS011;62630;55.874;37.516;2022-09-09T04:11:01;5.65;;;1.52;;
74259;SDS011;62630;55.874;37.516;2022-09-09T04:13:30;3.05;;;1.38;;
74259;SDS011;62630;55.874;37.516;2022-09-09T04:15:56;10.18;;;2.65;;
74259;SDS011;62630;55.874;37.516;2022-09-09T04:18:23;3.58;;;1.95;;
74259;SDS011;62630;55.874;37.516;2022-09-09T04:20:51;3.72;;;1.50;;
74259;SDS011;62630;55.874;37.516;2022-09-09T04:23:18;3.50;;;1.65;;
74259;SDS011;62630;55.874;37.516;2022-09-09T04:25:49;5.05;;;1.42;;
74259;SDS011;62630;55.874;37.516;2022-09-09T04:28:17;2.83;;;1.63;;
74259;SDS011;62630;55.874;37.516;2022-09-09T04:30:43;3.97;;;1.50;;
74259;SDS011;62630;55.874;37.516;2022-09-09T04:33:10;5.07;;;1.52;;
74259;SDS011;62630;55.874;37.516;2022-09-09T04:35:36;3.75;;;1.58;;
74259;SDS011;62630;55.874;37.516;2022-09-09T04:38:04;2.35;;;1.48;;
74259;SDS011;62630;55.874;37.516;2022-09-09T04:40:32;4.80;;;1.42;;
74259;SDS011;62630;55.874;37.516;2022-09-09T04:42:58;6.63;;;1.55;;
74259;SDS011;62630;55.874;37.516;2022-09-09T04:45:24;7.05;;;1.52;;
74259;SDS011;62630;55.874;37.516;2022-09-09T04:47:51;4.20;;;1.27;;
74259;SDS011;62630;55.874;37.516;2022-09-09T04:50:17;3.72;;;1.20;;
74259;SDS011;62630;55.874;37.516;2022-09-09T04:52:43;2.97;;;1.25;;
74259;SDS011;62630;55.874;37.516;2022-09-09T04:55:09;1.65;;;1.00;;
74259;SDS011;62630;55.874;37.516;2022-09-09T04:57:35;3.15;;;1.20;;
74259;SDS011;62630;55.874;37.516;2022-09-09T05:00:00;2.30;;;1.25;;
74259;SDS011;62630;55.874;37.516;2022-09-09T05:02:26;1.48;;;1.08;;
74259;SDS011;62630;55.874;37.516;2022-09-09T05:04:54;7.95;;;1.70;;
74259;SDS011;62630;55.874;37.516;2022-09-09T05:07:20;2.25;;;1.33;;
74259;SDS011;62630;55.874;37.516;2022-09-09T05:09:45;1.40;;;0.90;;
74259;SDS011;62630;55.874;37.516;2022-09-09T05:12:13;2.10;;;0.82;;
74259;SDS011;62630;55.874;37.516;2022-09-09T05:14:38;1.92;;;1.10;;
74259;SDS011;62630;55.874;37.516;2022-09-09T05:17:04;1.42;;;0.90;;
74259;SDS011;62630;55.874;37.516;2022-09-09T05:19:29;1.88;;;1.20;;
74259;SDS011;62630;55.874;37.516;2022-09-09T05:21:56;3.50;;;1.30;;
74259;SDS011;62630;55.874;37.516;2022-09-09T05:24:22;5.32;;;1.15;;
74259;SDS011;62630;55.874;37.516;2022-09-09T05:26:50;1.25;;;0.75;;
74259;SDS011;62630;55.874;37.516;2022-09-09T05:29:15;7.50;;;1.17;;
74259;SDS011;62630;55.874;37.516;2022-09-09T05:31:43;2.05;;;1.38;;
74259;SDS011;62630;55.874;37.516;2022-09-09T05:34:09;5.03;;;1.40;;
74259;SDS011;62630;55.874;37.516;2022-09-09T05:36:34;6.00;;;1.42;;
74259;SDS011;62630;55.874;37.516;2022-09-09T05:39:00;9.32;;;1.83;;
74259;SDS011;62630;55.874;37.516;2022-09-09T05:41:26;4.30;;;1.25;;
74259;SDS011;62630;55.874;37.516;2022-09-09T05:46:20;2.80;;;1.00;;
74259;SDS011;62630;55.874;37.516;2022-09-09T05:48:47;1.83;;;0.70;;
74259;SDS011;62630;55.874;37.516;2022-09-09T05:51:19;1.65;;;0.85;;
74259;SDS011;62630;55.874;37.516;2022-09-09T05:53:47;3.15;;;1.08;;
74259;SDS011;62630;55.874;37.516;2022-09-09T05:56:20;6.53;;;1.30;;
74259;SDS011;62630;55.874;37.516;2022-09-09T05:58:49;5.57;;;1.73;;
74259;SDS011;62630;55.874;37.516;2022-09-09T06:01:19;4.00;;;1.23;;
74259;SDS011;62630;55.874;37.516;2022-09-09T06:03:52;3.70;;;1.00;;
74259;SDS011;62630;55.874;37.516;2022-09-09T06:06:22;4.07;;;1.23;;
74259;SDS011;62630;55.874;37.516;2022-09-09T06:08:51;4.80;;;1.00;;
74259;SDS011;62630;55.874;37.516;2022-09-09T06:11:19;5.28;;;1.42;;
74259;SDS011;62630;55.874;37.516;2022-09-09T06:13:47;1.75;;;1.25;;
74259;SDS011;62630;55.874;37.516;2022-09-09T06:16:14;4.13;;;1.10;;
74259;SDS011;62630;55.874;37.516;2022-09-09T06:18:41;4.50;;;1.20;;
74259;SDS011;62630;55.874;37.516;2022-09-09T06:21:21;2.30;;;0.98;;
74259;SDS011;62630;55.874;37.516;2022-09-09T06:23:47;5.60;;;1.10;;
74259;SDS011;62630;55.874;37.516;2022-09-09T06:28:54;4.13;;;1.33;;
74259;SDS011;62630;55.874;37.516;2022-09-09T06:31:21;4.18;;;1.20;;
74259;SDS011;62630;55.874;37.516;2022-09-09T06:33:51;1.63;;;0.80;;
74259;SDS011;62630;55.874;37.516;2022-09-09T06:36:23;2.13;;;0.80;;
74259;SDS011;62630;55.874;37.516;2022-09-09T06:38:59;3.55;;;0.88;;
74259;SDS011;62630;55.874;37.516;2022-09-09T06:41:26;3.47;;;0.75;;
74259;SDS011;62630;55.874;37.516;2022-09-09T06:43:53;1.42;;;0.80;;
74259;SDS011;62630;55.874;37.516;2022-09-09T06:46:24;3.90;;;0.98;;
74259;SDS011;62630;55.874;37.516;2022-09-09T06:48:55;12.52;;;1.20;;
74259;SDS011;62630;55.874;37.516;2022-09-09T06:51:23;4.65;;;0.90;;
74259;SDS011;62630;55.874;37.516;2022-09-09T06:53:56;4.07;;;0.82;;
74259;SDS011;62630;55.874;37.516;2022-09-09T06:56:29;5.65;;;0.70;;
74259;SDS011;62630;55.874;37.516;2022-09-09T06:58:57;2.50;;;1.08;;
74259;SDS011;62630;55.874;37.516;2022-09-09T07:01:27;3.88;;;0.88;;
74259;SDS011;62630;55.874;37.516;2022-09-09T07:03:56;3.40;;;0.70;;
74259;SDS011;62630;55.874;37.516;2022-09-09T07:06:26;1.25;;;0.57;;
74259;SDS011;62630;55.874;37.516;2022-09-09T07:08:57;3.53;;;0.70;;
74259;SDS011;62630;55.874;37.516;2022-09-09T07:13:52;5.28;;;0.77;;
74259;SDS011;62630;55.874;37.516;2022-09-09T07:16:23;0.70;;;0.50;;
74259;SDS011;62630;55.874;37.516;2022-09-09T07:18:55;5.05;;;0.70;;
74259;SDS011;62630;55.874;37.516;2022-09-09T07:21:26;2.42;;;0.80;;
74259;SDS011;62630;55.874;37.516;2022-09-09T07:23:53;0.70;;;0.55;;
74259;SDS011;62630;55.874;37.516;2022-09-09T07:26:22;2.33;;;1.00;;
74259;SDS011;62630;55.874;37.516;2022-09-09T07:28:53;3.72;;;0.93;;
74259;SDS011;62630;55.874;37.516;2022-09-09T07:31:24;2.20;;;0.70;;
74259;SDS011;62630;55.874;37.516;2022-09-09T07:33:58;4.22;;;0.70;;
74259;SDS011;62630;55.874;37.516;2022-09-09T07:36:28;1.50;;;0.60;;
74259;SDS011;62630;55.874;37.516;2022-09-09T07:38:59;1.75;;;0.47;;
74259;SDS011;62630;55.874;37.516;2022-09-09T07:41:36;1.48;;;0.40;;
74259;SDS011;62630;55.874;37.516;2022-09-09T07:44:18;0.65;;;0.30;;
74259;SDS011;62630;55.874;37.516;2022-09-09T07:46:49;0.45;;;0.40;;
74259;SDS011;62630;55.874;37.516;2022-09-09T07:49:15;1.05;;;0.50;;
74259;SDS011;62630;55.874;37.516;2022-09-09T07:51:44;0.52;;;0.50;;
74259;SDS011;62630;55.874;37.516;2022-09-09T07:54:14;0.80;;;0.40;;
74259;SDS011;62630;55.874;37.516;2022-09-09T07:56:45;1.00;;;0.50;;
74259;SDS011;62630;55.874;37.516;2022-09-09T07:59:12;0.60;;;0.55;;
74259;SDS011;62630;55.874;37.516;2022-09-09T08:01:47;0.40;;;0.40;;
74259;SDS011;62630;55.874;37.516;2022-09-09T08:04:16;2.65;;;0.43;;
74259;SDS011;62630;55.874;37.516;2022-09-09T08:06:45;2.95;;;0.47;;
74259;SDS011;62630;55.874;37.516;2022-09-09T08:09:12;2.45;;;0.43;;
74259;SDS011;62630;55.874;37.516;2022-09-09T08:11:38;3.53;;;0.70;;
74259;SDS011;62630;55.874;37.516;2022-09-09T08:14:07;5.85;;;0.77;;
74259;SDS011;62630;55.874;37.516;2022-09-09T08:16:35;1.75;;;0.70;;
74259;SDS011;62630;55.874;37.516;2022-09-09T08:19:03;2.60;;;0.50;;
74259;SDS011;62630;55.874;37.516;2022-09-09T08:21:30;1.90;;;0.60;;
74259;SDS011;62630;55.874;37.516;2022-09-09T08:23:58;1.73;;;0.60;;
74259;SDS011;62630;55.874;37.516;2022-09-09T08:28:53;4.07;;;1.00;;
74259;SDS011;62630;55.874;37.516;2022-09-09T08:31:24;3.35;;;0.90;;
74259;SDS011;62630;55.874;37.516;2022-09-09T08:33:55;0.70;;;0.70;;
74259;SDS011;62630;55.874;37.516;2022-09-09T08:36:25;0.38;;;0.38;;
74259;SDS011;62630;55.874;37.516;2022-09-09T08:38:54;0.20;;;0.20;;
74259;SDS011;62630;55.874;37.516;2022-09-09T08:43:50;0.75;;;0.38;;
74259;SDS011;62630;55.874;37.516;2022-09-09T08:46:50;0.70;;;0.40;;
74259;SDS011;62630;55.874;37.516;2022-09-09T08:54:55;0.73;;;0.60;;
74259;SDS011;62630;55.874;37.516;2022-09-09T08:57:25;1.45;;;0.60;;
74259;SDS011;62630;55.874;37.516;2022-09-09T08:59:54;2.10;;;0.80;;
74259;SDS011;62630;55.874;37.516;2022-09-09T09:02:42;0.75;;;0.63;;
74259;SDS011;62630;55.874;37.516;2022-09-09T09:05:19;2.15;;;0.52;;
74259;SDS011;62630;55.874;37.516;2022-09-09T09:10:48;1.13;;;0.70;;
74259;SDS011;62630;55.874;37.516;2022-09-09T09:19:10;2.25;;;0.50;;
74259;SDS011;62630;55.874;37.516;2022-09-09T09:24:38;5.65;;;1.00;;
74259;SDS011;62630;55.874;37.516;2022-09-09T09:27:17;2.70;;;0.50;;
74259;SDS011;62630;55.874;37.516;2022-09-09T09:30:02;2.90;;;0.70;;
74259;SDS011;62630;55.874;37.516;2022-09-09T09:32:39;5.82;;;1.20;;
74259;SDS011;62630;55.874;37.516;2022-09-09T09:35:19;0.98;;;0.50;;
74259;SDS011;62630;55.874;37.516;2022-09-09T09:37:44;3.15;;;0.75;;
74259;SDS011;62630;55.874;37.516;2022-09-09T09:40:16;1.55;;;0.65;;
74259;SDS011;62630;55.874;37.516;2022-09-09T09:43:03;2.67;;;0.82;;
74259;SDS011;62630;55.874;37.516;2022-09-09T09:48:12;6.80;;;1.70;;
74259;SDS011;62630;55.874;37.516;2022-09-09T09:51:03;3.80;;;1.08;;
74259;SDS011;62630;55.874;37.516;2022-09-09T09:53:33;2.15;;;0.90;;
74259;SDS011;62630;55.874;37.516;2022-09-09T09:56:02;5.60;;;0.70;;
74259;SDS011;62630;55.874;37.516;2022-09-09T09:58:32;10.75;;;0.98;;
74259;SDS011;62630;55.874;37.516;2022-09-09T10:01:18;1.00;;;0.43;;
74259;SDS011;62630;55.874;37.516;2022-09-09T10:03:53;0.73;;;0.43;;
74259;SDS011;62630;55.874;37.516;2022-09-09T10:06:32;0.90;;;0.57;;
74259;SDS011;62630;55.874;37.516;2022-09-09T10:09:02;0.75;;;0.50;;
74259;SDS011;62630;55.874;37.516;2022-09-09T10:17:18;3.25;;;0.65;;
74259;SDS011;62630;55.874;37.516;2022-09-09T10:22:51;4.68;;;0.85;;
74259;SDS011;62630;55.874;37.516;2022-09-09T10:30:41;0.70;;;0.52;;
74259;SDS011;62630;55.874;37.516;2022-09-09T10:33:20;1.98;;;0.80;;
74259;SDS011;62630;55.874;37.516;2022-09-09T10:38:45;1.80;;;0.70;;
74259;SDS011;62630;55.874;37.516;2022-09-09T10:41:19;1.20;;;0.50;;
74259;SDS011;62630;55.874;37.516;2022-09-09T10:53:14;3.20;;;1.00;;
74259;SDS011;62630;55.874;37.516;2022-09-09T10:55:52;1.80;;;0.82;;
74259;SDS011;62630;55.874;37.516;2022-09-09T10:58:32;1.70;;;0.70;;
74259;SDS011;62630;55.874;37.516;2022-09-09T11:01:18;0.85;;;0.80;;
74259;SDS011;62630;55.874;37.516;2022-09-09T11:03:51;0.90;;;0.50;;
74259;SDS011;62630;55.874;37.516;2022-09-09T11:06:25;3.00;;;0.90;;
74259;SDS011;62630;55.874;37.516;2022-09-09T11:09:01;3.05;;;1.40;;
74259;SDS011;62630;55.874;37.516;2022-09-09T11:11:40;2.85;;;1.10;;
74259;SDS011;62630;55.874;37.516;2022-09-09T11:14:15;0.98;;;0.85;;
74259;SDS011;62630;55.874;37.516;2022-09-09T11:17:02;1.75;;;0.80;;
74259;SDS011;62630;55.874;37.516;2022-09-09T11:19:34;0.82;;;0.82;;
74259;SDS011;62630;55.874;37.516;2022-09-09T11:27:49;1.30;;;0.80;;
74259;SDS011;62630;55.874;37.516;2022-09-09T11:39:22;2.63;;;0.75;;
74259;SDS011;62630;55.874;37.516;2022-09-09T11:42:17;3.67;;;0.70;;
74259;SDS011;62630;55.874;37.516;2022-09-09T11:44:48;5.68;;;1.13;;
74259;SDS011;62630;55.874;37.516;2022-09-09T11:47:16;4.18;;;0.93;;
74259;SDS011;62630;55.874;37.516;2022-09-09T11:49:49;1.80;;;0.70;;
74259;SDS011;62630;55.874;37.516;2022-09-09T11:52:34;6.75;;;1.02;;
74259;SDS011;62630;55.874;37.516;2022-09-09T11:58:06;2.50;;;0.70;;
74259;SDS011;62630;55.874;37.516;2022-09-09T12:09:22;2.58;;;0.80;;
74259;SDS011;62630;55.874;37.516;2022-09-09T12:12:16;3.55;;;1.08;;
74259;SDS011;62630;55.874;37.516;2022-09-09T12:17:24;6.38;;;1.38;;
74259;SDS011;62630;55.874;37.516;2022-09-09T12:29:36;2.53;;;0.82;;
74259;SDS011;62630;55.874;37.516;2022-09-09T12:34:40;1.48;;;0.50;;
74259;SDS011;62630;55.874;37.516;2022-09-09T12:37:13;6.50;;;2.55;;
74259;SDS011;62630;55.874;37.516;2022-09-09T12:40:04;3.20;;;1.00;;
74259;SDS011;62630;55.874;37.516;2022-09-09T12:42:43;1.45;;;0.63;;
74259;SDS011;62630;55.874;37.516;2022-09-09T12:45:16;4.30;;;0.70;;
74259;SDS011;62630;55.874;37.516;2022-09-09T12:47:51;1.85;;;0.50;;
74259;SDS011;62630;55.874;37.516;2022-09-09T12:50:25;0.52;;;0.52;;
74259;SDS011;62630;55.874;37.516;2022-09-09T12:53:21;1.40;;;0.73;;
74259;SDS011;62630;55.874;37.516;2022-09-09T12:56:17;1.35;;;0.68;;
74259;SDS011;62630;55.874;37.516;2022-09-09T12:58:50;1.90;;;0.82;;
74259;SDS011;62630;55.874;37.516;2022-09-09T13:01:24;1.35;;;0.60;;
74259;SDS011;62630;55.874;37.516;2022-09-09T13:03:52;2.70;;;0.82;;
74259;SDS011;62630;55.874;37.516;2022-09-09T13:06:20;1.00;;;0.70;;
74259;SDS011;62630;55.874;37.516;2022-09-09T13:08:48;1.50;;;0.70;;
74259;SDS011;62630;55.874;37.516;2022-09-09T13:11:22;1.63;;;0.55;;
74259;SDS011;62630;55.874;37.516;2022-09-09T13:16:30;0.95;;;0.70;;
74259;SDS011;62630;55.874;37.516;2022-09-09T13:19:07;0.80;;;0.40;;
74259;SDS011;62630;55.874;37.516;2022-09-09T13:21:34;3.53;;;1.27;;
74259;SDS011;62630;55.874;37.516;2022-09-09T13:27:01;0.77;;;0.60;;
74259;SDS011;62630;55.874;37.516;2022-09-09T13:29:28;2.42;;;0.73;;
74259;SDS011;62630;55.874;37.516;2022-09-09T13:32:03;2.50;;;1.23;;
74259;SDS011;62630;55.874;37.516;2022-09-09T13:34:53;3.72;;;1.13;;
74259;SDS011;62630;55.874;37.516;2022-09-09T13:37:23;7.93;;;2.05;;
74259;SDS011;62630;55.874;37.516;2022-09-09T13:40:02;10.63;;;1.95;;
74259;SDS011;62630;55.874;37.516;2022-09-09T13:42:33;5.80;;;1.60;;
74259;SDS011;62630;55.874;37.516;2022-09-09T13:45:21;4.80;;;1.20;;
74259;SDS011;62630;55.874;37.516;2022-09-09T13:47:49;1.13;;;0.60;;
74259;SDS011;62630;55.874;37.516;2022-09-09T13:52:53;7.20;;;1.20;;
74259;SDS011;62630;55.874;37.516;2022-09-09T13:55:25;1.55;;;0.60;;
74259;SDS011;62630;55.874;37.516;2022-09-09T13:57:56;4.05;;;0.70;;
74259;SDS011;62630;55.874;37.516;2022-09-09T14:00:24;0.80;;;0.60;;
74259;SDS011;62630;55.874;37.516;2022-09-09T14:02:53;1.33;;;0.60;;
74259;SDS011;62630;55.874;37.516;2022-09-09T14:05:23;2.15;;;0.82;;
74259;SDS011;62630;55.874;37.516;2022-09-09T14:07:49;2.25;;;0.57;;
74259;SDS011;62630;55.874;37.516;2022-09-09T14:10:15;1.85;;;0.88;;
74259;SDS011;62630;55.874;37.516;2022-09-09T14:12:41;1.80;;;0.70;;
74259;SDS011;62630;55.874;37.516;2022-09-09T14:15:07;1.65;;;0.85;;
74259;SDS011;62630;55.874;37.516;2022-09-09T14:17:34;3.53;;;0.85;;
74259;SDS011;62630;55.874;37.516;2022-09-09T14:20:02;1.77;;;0.70;;
74259;SDS011;62630;55.874;37.516;2022-09-09T14:22:32;0.77;;;0.60;;
74259;SDS011;62630;55.874;37.516;2022-09-09T14:24:58;1.20;;;0.55;;
74259;SDS011;62630;55.874;37.516;2022-09-09T14:27:24;0.90;;;0.50;;
74259;SDS011;62630;55.874;37.516;2022-09-09T14:32:19;1.60;;;0.70;;
74259;SDS011;62630;55.874;37.516;2022-09-09T14:34:46;3.25;;;0.95;;
74259;SDS011;62630;55.874;37.516;2022-09-09T14:37:17;2.13;;;1.08;;
74259;SDS011;62630;55.874;37.516;2022-09-09T14:39:43;1.80;;;0.95;;
74259;SDS011;62630;55.874;37.516;2022-09-09T14:42:10;3.55;;;0.95;;
74259;SDS011;62630;55.874;37.516;2022-09-09T14:44:36;3.90;;;0.90;;
74259;SDS011;62630;55.874;37.516;2022-09-09T14:47:07;2.03;;;1.10;;
74259;SDS011;62630;55.874;37.516;2022-09-09T14:49:34;0.93;;;0.65;;
74259;SDS011;62630;55.874;37.516;2022-09-09T14:52:00;1.45;;;0.77;;
74259;SDS011;62630;55.874;37.516;2022-09-09T14:54:26;7.90;;;1.10;;
74259;SDS011;62630;55.874;37.516;2022-09-09T14:56:53;2.90;;;0.70;;
74259;SDS011;62630;55.874;37.516;2022-09-09T14:59:19;1.35;;;0.95;;
74259;SDS011;62630;55.874;37.516;2022-09-09T15:01:47;3.28;;;1.30;;
74259;SDS011;62630;55.874;37.516;2022-09-09T15:04:13;3.53;;;1.20;;
74259;SDS011;62630;55.874;37.516;2022-09-09T15:06:41;8.45;;;1.60;;
74259;SDS011;62630;55.874;37.516;2022-09-09T15:09:12;2.47;;;1.45;;
74259;SDS011;62630;55.874;37.516;2022-09-09T15:11:38;2.53;;;0.73;;
74259;SDS011;62630;55.874;37.516;2022-09-09T15:14:05;1.48;;;0.82;;
74259;SDS011;62630;55.874;37.516;2022-09-09T15:16:35;2.60;;;0.80;;
74259;SDS011;62630;55.874;37.516;2022-09-09T15:19:03;5.85;;;1.13;;
74259;SDS011;62630;55.874;37.516;2022-09-09T15:21:30;3.60;;;1.25;;
74259;SDS011;62630;55.874;37.516;2022-09-09T15:23:58;2.90;;;1.27;;
74259;SDS011;62630;55.874;37.516;2022-09-09T15:26:27;3.58;;;1.20;;
74259;SDS011;62630;55.874;37.516;2022-09-09T15:28:54;2.65;;;0.90;;
74259;SDS011;62630;55.874;37.516;2022-09-09T15:31:21;2.72;;;1.27;;
74259;SDS011;62630;55.874;37.516;2022-09-09T15:36:18;3.42;;;1.20;;
74259;SDS011;62630;55.874;37.516;2022-09-09T15:38:44;3.53;;;1.20;;
74259;SDS011;62630;55.874;37.516;2022-09-09T15:41:14;5.60;;;1.13;;
74259;SDS011;62630;55.874;37.516;2022-09-09T15:43:44;3.15;;;1.48;;
74259;SDS011;62630;55.874;37.516;2022-09-09T15:49:02;2.17;;;1.38;;
74259;SDS011;62630;55.874;37.516;2022-09-09T15:51:31;1.80;;;1.17;;
74259;SDS011;62630;55.874;37.516;2022-09-09T15:53:58;3.85;;;1.70;;
74259;SDS011;62630;55.874;37.516;2022-09-09T15:56:34;3.67;;;1.10;;
74259;SDS011;62630;55.874;37.516;2022-09-09T15:59:04;4.63;;;1.50;;
74259;SDS011;62630;55.874;37.516;2022-09-09T16:01:29;2.33;;;1.20;;
74259;SDS011;62630;55.874;37.516;2022-09-09T16:04:05;2.63;;;1.40;;
74259;SDS011;62630;55.874;37.516;2022-09-09T16:06:33;2.90;;;1.45;;
74259;SDS011;62630;55.874;37.516;2022-09-09T16:08:59;4.20;;;1.42;;
74259;SDS011;62630;55.874;37.516;2022-09-09T16:11:30;2.35;;;1.17;;
74259;SDS011;62630;55.874;37.516;2022-09-09T16:14:00;5.97;;;1.45;;
74259;SDS011;62630;55.874;37.516;2022-09-09T16:16:28;5.93;;;1.85;;
74259;SDS011;62630;55.874;37.516;2022-09-09T16:18:56;1.60;;;1.25;;
74259;SDS011;62630;55.874;37.516;2022-09-09T16:21:30;2.25;;;1.60;;
74259;SDS011;62630;55.874;37.516;2022-09-09T16:24:08;4.55;;;1.70;;
74259;SDS011;62630;55.874;37.516;2022-09-09T16:26:37;5.80;;;1.73;;
74259;SDS011;62630;55.874;37.516;2022-09-09T16:29:04;4.97;;;1.52;;
74259;SDS011;62630;55.874;37.516;2022-09-09T16:31:30;5.10;;;2.38;;
74259;SDS011;62630;55.874;37.516;2022-09-09T16:33:57;5.28;;;2.17;;
74259;SDS011;62630;55.874;37.516;2022-09-09T16:36:26;5.97;;;2.17;;
74259;SDS011;62630;55.874;37.516;2022-09-09T16:38:59;10.85;;;2.28;;
74259;SDS011;62630;55.874;37.516;2022-09-09T16:41:31;4.30;;;1.52;;
74259;SDS011;62630;55.874;37.516;2022-09-09T16:44:02;3.28;;;1.90;;
74259;SDS011;62630;55.874;37.516;2022-09-09T16:46:29;6.10;;;2.58;;
74259;SDS011;62630;55.874;37.516;2022-09-09T16:48:59;13.55;;;2.20;;
74259;SDS011;62630;55.874;37.516;2022-09-09T16:51:28;6.25;;;1.50;;
74259;SDS011;62630;55.874;37.516;2022-09-09T16:53:57;4.22;;;1.60;;
74259;SDS011;62630;55.874;37.516;2022-09-09T16:56:25;8.80;;;2.08;;
74259;SDS011;62630;55.874;37.516;2022-09-09T16:59:06;5.53;;;2.08;;
74259;SDS011;62630;55.874;37.516;2022-09-09T17:01:37;14.68;;;2.08;;
74259;SDS011;62630;55.874;37.516;2022-09-09T17:04:14;6.22;;;2.05;;
74259;SDS011;62630;55.874;37.516;2022-09-09T17:06:45;3.83;;;2.03;;
74259;SDS011;62630;55.874;37.516;2022-09-09T17:09:16;5.97;;;2.50;;
74259;SDS011;62630;55.874;37.516;2022-09-09T17:11:43;5.95;;;2.95;;
74259;SDS011;62630;55.874;37.516;2022-09-09T17:14:11;10.20;;;3.17;;
74259;SDS011;62630;55.874;37.516;2022-09-09T17:16:39;5.60;;;2.60;;
74259;SDS011;62630;55.874;37.516;2022-09-09T17:19:05;6.05;;;3.00;;
74259;SDS011;62630;55.874;37.516;2022-09-09T17:21:35;11.23;;;4.00;;
74259;SDS011;62630;55.874;37.516;2022-09-09T17:24:01;10.45;;;5.07;;
74259;SDS011;62630;55.874;37.516;2022-09-09T17:26:31;10.30;;;4.03;;
74259;SDS011;62630;55.874;37.516;2022-09-09T17:28:59;8.45;;;3.20;;
74259;SDS011;62630;55.874;37.516;2022-09-09T17:31:26;3.75;;;2.47;;
74259;SDS011;62630;55.874;37.516;2022-09-09T17:36:20;5.20;;;2.47;;
74259;SDS011;62630;55.874;37.516;2022-09-09T17:38:46;8.65;;;3.08;;
74259;SDS011;62630;55.874;37.516;2022-09-09T17:41:20;7.57;;;2.70;;
74259;SDS011;62630;55.874;37.516;2022-09-09T17:43:51;8.05;;;2.42;;
74259;SDS011;62630;55.874;37.516;2022-09-09T17:46:18;6.22;;;2.67;;
74259;SDS011;62630;55.874;37.516;2022-09-09T17:48:46;5.30;;;2.88;;
74259;SDS011;62630;55.874;37.516;2022-09-09T17:54:03;5.13;;;2.25;;